createdAt,value
2022-08-10T00:00:18.170Z,61.82
2022-08-10T00:03:10.283Z,62.07
2022-08-10T00:05:52.644Z,61.98
2022-08-10T00:08:29.097Z,62.15
2022-08-10T00:11:01.870Z,61.92
2022-08-10T00:13:42.130Z,61.88
2022-08-10T00:16:14.781Z,62.35
2022-08-10T00:18:47.446Z,62.05
2022-08-10T00:21:20.161Z,61.77
2022-08-10T00:23:52.607Z,61.72
2022-08-10T00:26:25.109Z,62.06
2022-08-10T00:29:00.164Z,62.07
2022-08-10T00:31:32.251Z,62.05
2022-08-10T00:34:24.695Z,62.46
2022-08-10T00:36:57.000Z,62.53
2022-08-10T00:39:30.498Z,62.62
2022-08-10T00:42:11.541Z,62.40
2022-08-10T00:44:50.066Z,62.21
2022-08-10T00:47:36.452Z,62.00
2022-08-10T00:50:13.342Z,61.76
2022-08-10T00:52:47.600Z,62.00
2022-08-10T00:55:21.363Z,61.84
2022-08-10T00:57:55.008Z,62.23
2022-08-10T01:00:30.509Z,62.56
2022-08-10T01:03:01.949Z,62.77
2022-08-10T01:05:35.961Z,62.46
2022-08-10T01:08:33.096Z,62.57
2022-08-10T01:12:38.352Z,62.88
2022-08-10T01:14:17.668Z,62.91
2022-08-10T01:16:56.080Z,62.59
2022-08-10T01:19:45.773Z,62.65
2022-08-10T01:22:41.943Z,62.36
2022-08-10T01:26:11.531Z,62.00
2022-08-10T01:28:56.523Z,61.69
2022-08-10T01:31:34.187Z,62.50
2022-08-10T01:34:13.014Z,62.52
2022-08-10T01:36:51.717Z,62.73
2022-08-10T01:39:27.693Z,62.73
2022-08-10T01:42:04.503Z,63.03
2022-08-10T01:44:40.902Z,63.15
2022-08-10T01:47:34.645Z,63.06
2022-08-10T01:50:15.016Z,62.96
2022-08-10T01:52:53.047Z,62.84
2022-08-10T01:55:28.550Z,62.78
2022-08-10T01:58:05.548Z,62.81
2022-08-10T02:00:40.967Z,62.79
2022-08-10T02:03:14.254Z,62.98
2022-08-10T02:05:49.106Z,63.30
2022-08-10T02:08:20.511Z,63.06
2022-08-10T02:10:55.832Z,62.61
2022-08-10T02:13:29.575Z,62.48
2022-08-10T02:16:04.217Z,62.42
2022-08-10T02:18:40.528Z,62.46
2022-08-10T02:21:16.813Z,62.47
2022-08-10T02:23:59.570Z,62.72
2022-08-10T02:26:34.324Z,62.06
2022-08-10T02:29:08.647Z,62.35
2022-08-10T02:31:41.551Z,62.82
2022-08-10T02:34:17.058Z,62.62
2022-08-10T02:36:55.626Z,62.80
2022-08-10T02:39:29.423Z,63.13
2022-08-10T02:45:06.354Z,63.04
2022-08-10T02:45:23.852Z,63.28
2022-08-10T02:48:06.857Z,63.19
2022-08-10T02:50:41.220Z,63.28
2022-08-10T02:53:54.878Z,63.42
2022-08-10T02:56:22.500Z,63.32
2022-08-10T02:59:02.481Z,63.50
2022-08-10T03:01:39.171Z,63.29
2022-08-10T03:04:17.829Z,63.11
2022-08-10T03:06:57.006Z,63.16
2022-08-10T03:09:33.540Z,63.26
2022-08-10T03:12:36.609Z,63.29
2022-08-10T03:15:02.059Z,62.79
2022-08-10T03:17:36.268Z,63.00
2022-08-10T03:20:36.696Z,62.99
2022-08-10T03:23:07.352Z,62.64
2022-08-10T03:25:40.561Z,62.06
2022-08-10T03:28:18.174Z,61.73
2022-08-10T03:30:54.039Z,60.84
2022-08-10T03:33:30.596Z,60.96
2022-08-10T03:36:40.168Z,61.57
2022-08-10T03:38:56.610Z,61.62
2022-08-10T03:41:36.579Z,61.75
2022-08-10T03:44:12.952Z,62.21
2022-08-10T03:46:49.841Z,62.36
2022-08-10T03:49:24.227Z,62.47
2022-08-10T03:51:58.931Z,62.09
2022-08-10T03:54:31.655Z,62.45
2022-08-10T03:57:04.905Z,62.26
2022-08-10T03:59:37.791Z,62.26
2022-08-10T04:02:44.141Z,62.34
2022-08-10T04:05:05.963Z,62.70
2022-08-10T04:07:38.806Z,62.00
2022-08-10T04:10:14.442Z,62.13
2022-08-10T04:12:46.860Z,62.86
2022-08-10T04:15:19.187Z,62.74
2022-08-10T04:18:01.258Z,62.84
2022-08-10T04:20:45.144Z,63.30
2022-08-10T04:23:22.350Z,63.75
2022-08-10T04:25:57.276Z,64.00
2022-08-10T04:28:30.100Z,64.43
2022-08-10T04:31:06.826Z,65.03
2022-08-10T04:33:42.745Z,64.96
2022-08-10T04:36:20.290Z,65.43
2022-08-10T04:38:55.556Z,65.74
2022-08-10T04:41:33.202Z,66.10
2022-08-10T04:44:06.094Z,66.12
2022-08-10T04:46:56.352Z,66.17
2022-08-10T04:49:54.145Z,66.77
2022-08-10T04:52:25.201Z,66.39
2022-08-10T04:54:58.337Z,66.73
2022-08-10T04:57:30.447Z,66.72
2022-08-10T05:00:02.580Z,67.14
2022-08-10T05:02:43.665Z,66.98
2022-08-10T05:05:15.872Z,67.39
2022-08-10T05:07:54.340Z,67.71
2022-08-10T05:10:29.148Z,67.65
2022-08-10T05:13:01.861Z,68.51
2022-08-10T05:15:34.009Z,68.55
2022-08-10T05:18:11.309Z,68.98
2022-08-10T05:20:47.316Z,68.91
2022-08-10T05:23:22.550Z,68.94
2022-08-10T05:25:55.241Z,69.04
2022-08-10T05:28:30.803Z,69.16
2022-08-10T05:31:07.809Z,69.11
2022-08-10T05:33:41.444Z,69.19
2022-08-10T05:36:15.615Z,69.49
2022-08-10T05:38:49.959Z,69.02
2022-08-10T05:41:23.261Z,69.10
2022-08-10T05:43:58.146Z,69.17
2022-08-10T05:46:31.871Z,69.13
2022-08-10T05:49:04.808Z,69.22
2022-08-10T05:51:38.693Z,68.97
2022-08-10T05:54:15.719Z,68.59
2022-08-10T05:56:53.372Z,68.52
2022-08-10T06:00:29.528Z,69.02
2022-08-10T06:02:31.417Z,68.70
2022-08-10T06:05:12.173Z,68.37
2022-08-10T06:07:52.976Z,68.32
2022-08-10T06:10:32.493Z,67.98
2022-08-10T06:13:30.853Z,67.86
2022-08-10T06:16:11.270Z,67.33
2022-08-10T06:18:45.390Z,67.85
2022-08-10T06:21:18.945Z,67.15
2022-08-10T06:23:51.524Z,67.04
2022-08-10T06:26:24.030Z,66.58
2022-08-10T06:29:03.173Z,66.83
2022-08-10T06:31:49.008Z,66.77
2022-08-10T06:34:28.213Z,65.65
2022-08-10T06:37:04.964Z,65.61
2022-08-10T06:39:37.696Z,65.22
2022-08-10T06:42:18.170Z,64.13
2022-08-10T06:44:57.885Z,63.52
2022-08-10T06:47:35.801Z,64.09
2022-08-10T06:50:12.584Z,64.11
2022-08-10T06:52:45.309Z,62.89
2022-08-10T06:55:19.815Z,61.96
2022-08-10T06:58:02.382Z,60.91
2022-08-10T07:00:42.609Z,60.47
2022-08-10T07:03:18.831Z,60.92
2022-08-10T07:05:53.765Z,60.78
2022-08-10T07:08:28.130Z,59.94
2022-08-10T07:11:03.161Z,59.93
2022-08-10T07:14:14.324Z,59.16
2022-08-10T07:16:32.937Z,58.88
2022-08-10T07:19:06.269Z,58.72
2022-08-10T07:21:39.341Z,59.47
2022-08-10T07:24:14.688Z,59.48
2022-08-10T07:26:51.589Z,58.14
2022-08-10T07:29:53.308Z,57.30
2022-08-10T07:32:23.542Z,56.36
2022-08-10T07:34:57.475Z,56.32
2022-08-10T07:37:31.580Z,56.56
2022-08-10T07:40:06.526Z,56.59
2022-08-10T07:42:45.422Z,55.74
2022-08-10T07:45:18.288Z,54.54
2022-08-10T07:47:55.941Z,54.90
2022-08-10T07:50:33.019Z,54.83
2022-08-10T07:53:11.414Z,54.27
2022-08-10T07:56:05.507Z,54.65
2022-08-10T07:58:49.882Z,54.90
2022-08-10T08:01:33.256Z,53.52
2022-08-10T08:04:11.857Z,53.62
2022-08-10T08:06:45.951Z,52.55
2022-08-10T08:09:19.200Z,52.59
2022-08-10T08:11:54.386Z,52.87
2022-08-10T08:14:27.471Z,52.44
2022-08-10T08:17:00.878Z,52.29
2022-08-10T08:19:37.596Z,52.54
2022-08-10T08:24:14.656Z,52.15
2022-08-10T08:25:16.549Z,50.79
2022-08-10T08:27:53.324Z,51.14
2022-08-10T08:30:26.859Z,51.20
2022-08-10T08:32:59.510Z,51.43
2022-08-10T08:35:33.502Z,51.37
2022-08-10T08:38:29.211Z,50.08
2022-08-10T08:41:09.031Z,50.31
2022-08-10T08:43:55.449Z,49.32
2022-08-10T08:47:33.691Z,48.60
2022-08-10T08:50:17.692Z,47.61
2022-08-10T08:53:22.220Z,48.66
2022-08-10T08:56:05.503Z,47.77
2022-08-10T08:58:53.855Z,47.61
2022-08-10T09:01:42.780Z,47.58
2022-08-10T09:04:30.197Z,47.58
2022-08-10T09:07:59.538Z,47.03
2022-08-10T09:10:22.325Z,46.59
2022-08-10T09:12:56.310Z,45.67
2022-08-10T09:15:40.852Z,46.52
2022-08-10T09:18:15.082Z,46.15
2022-08-10T09:20:50.929Z,46.12
2022-08-10T09:24:05.401Z,46.36
2022-08-10T09:26:27.349Z,45.91
2022-08-10T09:29:12.971Z,46.00
2022-08-10T09:31:55.474Z,45.33
2022-08-10T09:36:24.242Z,44.69
2022-08-10T09:38:13.015Z,45.04
2022-08-10T09:40:59.768Z,44.16
2022-08-10T09:43:45.514Z,44.76
2022-08-10T09:46:27.697Z,44.64
2022-08-10T09:49:09.606Z,44.36
2022-08-10T09:51:53.278Z,45.13
2022-08-10T09:54:37.370Z,45.38
2022-08-10T09:57:43.241Z,44.36
2022-08-10T10:00:16.523Z,43.73
2022-08-10T10:02:59.141Z,44.06
2022-08-10T10:05:51.049Z,44.94
2022-08-10T10:08:31.727Z,45.09
2022-08-10T10:11:18.472Z,43.52
2022-08-10T10:14:03.050Z,43.72
2022-08-10T10:16:44.880Z,43.62
2022-08-10T10:19:35.171Z,42.90
2022-08-10T10:22:26.499Z,43.92
2022-08-10T10:25:19.674Z,44.48
2022-08-10T10:28:07.014Z,44.05
2022-08-10T10:30:49.679Z,44.52
2022-08-10T10:33:34.472Z,44.90
2022-08-10T10:36:07.437Z,45.07
2022-08-10T10:38:43.443Z,45.29
2022-08-10T10:41:30.908Z,45.76
2022-08-10T10:44:42.238Z,46.29
2022-08-10T10:47:34.137Z,45.48
2022-08-10T10:50:13.527Z,45.17
2022-08-10T10:52:58.245Z,44.92
2022-08-10T10:56:13.252Z,45.38
2022-08-10T10:58:40.226Z,43.51
2022-08-10T11:01:21.896Z,42.86
2022-08-10T11:04:09.615Z,42.88
2022-08-10T11:07:10.390Z,41.72
2022-08-10T11:10:05.498Z,40.90
2022-08-10T11:12:50.880Z,40.81
2022-08-10T11:15:30.130Z,41.31
2022-08-10T11:18:07.067Z,40.47
2022-08-10T11:20:45.312Z,40.36
2022-08-10T11:23:28.371Z,39.84
2022-08-10T11:26:05.425Z,39.79
2022-08-10T11:28:45.193Z,38.74
2022-08-10T11:31:26.130Z,38.89
2022-08-10T11:34:48.607Z,38.44
2022-08-10T11:37:04.330Z,38.42
2022-08-10T11:39:48.709Z,37.86
2022-08-10T11:42:36.063Z,38.53
2022-08-10T11:45:14.522Z,38.58
2022-08-10T11:47:53.881Z,38.35
2022-08-10T11:50:30.260Z,38.61
2022-08-10T11:53:18.705Z,39.08
2022-08-10T11:55:57.244Z,39.24
2022-08-10T11:58:49.016Z,39.31
2022-08-10T12:01:27.698Z,38.70
2022-08-10T12:04:07.541Z,38.13
2022-08-10T12:07:00.325Z,37.23
2022-08-10T12:10:09.248Z,36.44
2022-08-10T12:12:28.294Z,37.62
2022-08-10T12:15:08.267Z,37.53
2022-08-10T12:17:45.915Z,37.35
2022-08-10T12:20:25.953Z,37.96
2022-08-10T12:23:01.723Z,37.69
2022-08-10T12:25:57.025Z,37.39
2022-08-10T12:28:50.313Z,37.21
2022-08-10T12:31:31.139Z,37.36
2022-08-10T12:34:20.047Z,36.62
2022-08-10T12:37:01.936Z,36.18
2022-08-10T12:39:45.020Z,35.57
2022-08-10T12:42:34.921Z,35.77
2022-08-10T12:45:17.277Z,34.89
2022-08-10T12:47:59.040Z,34.85
2022-08-10T12:50:38.441Z,34.03
2022-08-10T12:53:18.882Z,32.62
2022-08-10T12:55:52.787Z,33.23
2022-08-10T12:58:59.456Z,33.48
2022-08-10T13:01:20.208Z,34.02
2022-08-10T13:04:21.506Z,34.69
2022-08-10T13:06:50.435Z,34.96
2022-08-10T13:09:26.441Z,36.20
2022-08-10T13:12:35.929Z,36.95
2022-08-10T13:15:00.941Z,37.22
2022-08-10T13:17:39.483Z,38.15
2022-08-10T13:20:21.101Z,37.52
2022-08-10T13:22:56.337Z,37.76
2022-08-10T13:25:32.989Z,37.57
2022-08-10T13:28:37.834Z,36.74
2022-08-10T13:31:06.800Z,36.66
2022-08-10T13:34:41.523Z,36.73
2022-08-10T13:36:43.284Z,35.66
2022-08-10T13:39:19.383Z,35.25
2022-08-10T13:41:54.311Z,34.13
2022-08-10T13:44:35.430Z,33.79
2022-08-10T13:47:09.042Z,32.66
2022-08-10T13:49:50.544Z,32.96
2022-08-10T13:52:25.894Z,32.45
2022-08-10T13:55:01.141Z,32.19
2022-08-10T13:57:37.016Z,31.96
2022-08-10T14:00:34.081Z,33.79
2022-08-10T14:03:13.798Z,34.24
2022-08-10T14:05:54.230Z,34.61
2022-08-10T14:08:29.376Z,34.30
2022-08-10T14:11:10.882Z,34.84
2022-08-10T14:13:47.485Z,36.09
2022-08-10T14:16:21.147Z,37.01
2022-08-10T14:18:56.099Z,37.31
2022-08-10T14:21:29.511Z,37.47
2022-08-10T14:24:01.772Z,38.60
2022-08-10T14:26:34.347Z,39.12
2022-08-10T14:29:19.734Z,40.13
2022-08-10T14:32:00.891Z,41.39
2022-08-10T14:36:16.759Z,38.45
2022-08-10T14:37:37.572Z,36.72
2022-08-10T14:40:15.778Z,35.92
2022-08-10T14:42:51.844Z,36.28
2022-08-10T14:45:27.797Z,34.73
2022-08-10T14:48:07.360Z,34.23
2022-08-10T14:50:55.214Z,34.45
2022-08-10T14:53:34.571Z,34.49
2022-08-10T14:56:10.120Z,34.59
2022-08-10T14:59:06.150Z,34.06
2022-08-10T15:01:59.817Z,33.75
2022-08-10T15:04:37.610Z,33.82
2022-08-10T15:17:52.927Z,32.39
2022-08-10T15:20:25.396Z,32.87
2022-08-10T15:23:00.286Z,32.88
2022-08-10T15:25:31.113Z,32.17
2022-08-10T15:28:09.722Z,31.95
2022-08-10T15:30:42.087Z,32.79
2022-08-10T15:34:02.906Z,32.48
2022-08-10T15:36:42.641Z,32.51
2022-08-10T15:40:22.508Z,33.15
2022-08-10T15:42:09.316Z,33.94
2022-08-10T15:44:41.215Z,33.94
2022-08-10T15:47:15.161Z,33.81
2022-08-10T15:49:50.030Z,33.84
2022-08-10T15:52:40.083Z,35.22
2022-08-10T15:55:41.254Z,34.08
2022-08-10T15:58:10.003Z,34.25
2022-08-10T16:00:47.336Z,35.50
2022-08-10T16:03:23.375Z,36.28
2022-08-10T16:06:01.894Z,36.76
2022-08-10T16:08:55.770Z,36.07
2022-08-10T16:11:37.743Z,36.34
2022-08-10T16:14:16.119Z,36.32
2022-08-10T16:16:49.633Z,35.49
2022-08-10T16:19:24.017Z,36.36
2022-08-10T16:22:36.599Z,35.47
2022-08-10T16:24:59.158Z,35.73
2022-08-10T16:27:32.289Z,36.47
2022-08-10T16:30:04.664Z,35.54
2022-08-10T16:32:35.599Z,36.85
2022-08-10T16:35:09.385Z,36.75
2022-08-10T16:37:57.139Z,36.88
2022-08-10T16:40:29.838Z,37.38
2022-08-10T16:43:01.495Z,37.60
2022-08-10T16:45:34.292Z,36.70
2022-08-10T16:48:05.679Z,36.44
2022-08-10T16:50:40.865Z,35.80
2022-08-10T16:53:15.002Z,36.03
2022-08-10T16:55:48.520Z,36.45
2022-08-10T16:58:25.360Z,37.14
2022-08-10T17:01:00.426Z,37.39
2022-08-10T17:04:07.229Z,37.18
2022-08-10T17:06:30.867Z,37.91
2022-08-10T17:09:01.205Z,37.95
2022-08-10T17:11:32.292Z,37.67
2022-08-10T17:14:06.577Z,38.22
2022-08-10T17:16:38.069Z,38.56
2022-08-10T17:19:14.201Z,38.40
2022-08-10T17:21:54.835Z,38.22
2022-08-10T17:24:27.528Z,38.29
2022-08-10T17:27:01.383Z,38.03
2022-08-10T17:29:58.002Z,37.88
2022-08-10T17:32:44.084Z,39.52
2022-08-10T17:35:23.108Z,39.05
2022-08-10T17:37:58.149Z,39.27
2022-08-10T17:40:28.335Z,40.07
2022-08-10T17:42:59.582Z,39.09
2022-08-10T17:45:48.528Z,39.19
2022-08-10T17:48:24.690Z,39.19
2022-08-10T17:50:54.110Z,39.13
2022-08-10T17:53:27.590Z,38.32
2022-08-10T17:55:59.143Z,38.46
2022-08-10T17:58:31.075Z,39.41
2022-08-10T18:01:38.350Z,39.08
2022-08-10T18:03:54.037Z,39.55
2022-08-10T18:06:24.691Z,39.93
2022-08-10T18:08:57.620Z,40.03
2022-08-10T18:11:32.206Z,40.22
2022-08-10T18:14:04.745Z,39.12
2022-08-10T18:16:34.589Z,39.04
2022-08-10T18:19:07.026Z,38.99
2022-08-10T18:21:40.038Z,39.78
2022-08-10T18:24:16.651Z,39.48
2022-08-10T18:26:48.907Z,38.97
2022-08-10T18:29:21.584Z,39.75
2022-08-10T18:31:56.429Z,39.90
2022-08-10T18:34:26.026Z,39.94
2022-08-10T18:36:56.383Z,40.07
2022-08-10T18:39:29.453Z,40.02
2022-08-10T18:42:11.532Z,39.30
2022-08-10T18:44:47.097Z,39.27
2022-08-10T18:47:19.450Z,39.31
2022-08-10T18:50:04.825Z,40.30
2022-08-10T18:52:36.433Z,40.78
2022-08-10T18:55:23.289Z,41.03
2022-08-10T18:58:07.468Z,41.60
2022-08-10T19:00:48.875Z,42.46
2022-08-10T19:03:33.636Z,41.94
2022-08-10T19:06:22.447Z,41.09
2022-08-10T19:09:41.615Z,40.75
2022-08-10T19:12:30.915Z,41.22
2022-08-10T19:15:14.419Z,41.13
2022-08-10T19:18:03.052Z,42.49
2022-08-10T19:20:41.269Z,42.80
2022-08-10T19:23:26.699Z,43.23
2022-08-10T19:26:39.394Z,43.55
2022-08-10T19:29:16.780Z,44.18
2022-08-10T19:32:10.369Z,43.84
2022-08-10T19:34:52.834Z,43.69
2022-08-10T19:37:33.813Z,43.75
2022-08-10T19:40:15.940Z,44.06
2022-08-10T19:42:52.577Z,43.91
2022-08-10T19:46:01.815Z,44.42
2022-08-10T19:48:26.119Z,44.97
2022-08-10T19:51:00.776Z,45.18
2022-08-10T19:53:35.153Z,44.77
2022-08-10T19:56:35.033Z,44.37
2022-08-10T20:00:05.856Z,44.34
2022-08-10T20:02:22.963Z,44.28
2022-08-10T20:05:06.866Z,44.45
2022-08-10T20:07:54.597Z,44.58
2022-08-10T20:10:34.829Z,45.01
2022-08-10T20:13:14.448Z,45.06
2022-08-10T20:15:57.021Z,45.48
2022-08-10T20:18:36.210Z,45.62
2022-08-10T20:21:13.848Z,45.99
2022-08-10T20:23:57.564Z,46.10
2022-08-10T20:26:32.402Z,45.67
2022-08-10T20:29:09.013Z,45.96
2022-08-10T20:31:46.414Z,45.58
2022-08-10T20:34:23.160Z,45.48
2022-08-10T20:37:02.562Z,45.71
2022-08-10T20:39:46.589Z,45.72
2022-08-10T20:42:23.557Z,46.00
2022-08-10T20:45:07.186Z,45.93
2022-08-10T20:47:56.271Z,46.50
2022-08-10T20:50:36.666Z,46.45
2022-08-10T20:53:13.729Z,47.24
2022-08-10T20:55:56.766Z,46.74
2022-08-10T20:58:44.134Z,46.54
2022-08-10T21:02:06.205Z,46.48
2022-08-10T21:04:33.520Z,46.71
2022-08-10T21:07:58.320Z,46.78
2022-08-10T21:10:50.073Z,46.64
2022-08-10T21:13:37.442Z,46.50
2022-08-10T21:16:26.099Z,46.53
2022-08-10T21:19:20.242Z,46.92
2022-08-10T21:22:08.818Z,46.88
2022-08-10T21:24:52.058Z,47.50
2022-08-10T21:27:42.659Z,47.41
2022-08-10T21:30:27.234Z,47.25
2022-08-10T21:33:06.735Z,46.85
2022-08-10T21:35:43.359Z,47.23
2022-08-10T21:38:26.629Z,47.17
2022-08-10T21:45:01.092Z,47.54
2022-08-10T21:48:18.201Z,47.26
2022-08-10T21:51:14.886Z,47.56
2022-08-10T21:54:25.786Z,47.72
2022-08-10T21:57:24.476Z,48.11
2022-08-10T22:00:20.527Z,48.47
2022-08-10T22:03:14.611Z,48.66
2022-08-10T22:06:10.253Z,48.79
2022-08-10T22:09:07.307Z,48.70
2022-08-10T22:12:03.808Z,48.88
2022-08-10T22:14:57.419Z,48.86
2022-08-10T22:18:03.746Z,48.86
2022-08-10T22:21:04.228Z,49.39
2022-08-10T22:24:16.825Z,49.78
2022-08-10T22:27:47.122Z,49.56
2022-08-10T22:30:37.656Z,49.14
2022-08-10T22:31:27.231Z,47.39
2022-08-10T22:33:48.401Z,49.05
2022-08-10T22:36:58.264Z,49.11
2022-08-10T22:40:14.282Z,49.32
2022-08-10T22:43:10.462Z,49.68
2022-08-10T22:46:09.218Z,50.09
2022-08-10T22:49:03.134Z,50.31
2022-08-10T22:51:51.063Z,49.96
2022-08-10T22:54:58.907Z,49.59
2022-08-10T22:58:00.246Z,49.53
2022-08-10T23:00:33.237Z,49.91
2022-08-10T23:03:22.203Z,49.55
2022-08-10T23:05:58.681Z,49.48
2022-08-10T23:08:36.366Z,49.78
2022-08-10T23:11:13.858Z,49.95
2022-08-10T23:13:48.569Z,50.55
2022-08-10T23:16:39.688Z,50.28
2022-08-10T23:19:16.857Z,50.67
2022-08-10T23:22:03.021Z,50.67
2022-08-10T23:24:44.385Z,50.78
2022-08-10T23:27:39.244Z,50.56
2022-08-10T23:30:17.738Z,50.82
2022-08-10T23:32:59.256Z,50.75
2022-08-10T23:36:13.017Z,50.67
2022-08-10T23:38:39.519Z,50.56
2022-08-10T23:41:12.875Z,50.74
2022-08-10T23:44:03.502Z,51.17
2022-08-10T23:46:41.367Z,50.37
2022-08-10T23:49:15.541Z,51.09
2022-08-10T23:51:55.783Z,51.52
2022-08-10T23:54:30.297Z,51.21
2022-08-10T23:57:04.182Z,51.38
2022-08-10T23:59:38.272Z,51.65
